createdAt,value
2023-04-04T00:04:59.373Z,99618.45
2023-04-04T00:10:01.510Z,99612.27
2023-04-04T00:15:03.474Z,99608.30
2023-04-04T00:20:06.497Z,99610.57
2023-04-04T00:25:09.633Z,99607.90
2023-04-04T00:30:12.397Z,99604.22
2023-04-04T00:35:14.109Z,99603.66
2023-04-04T00:40:16.118Z,99606.31
2023-04-04T00:45:17.856Z,99606.83
2023-04-04T00:50:19.760Z,99605.08
2023-04-04T00:55:21.723Z,99605.14
2023-04-04T01:00:23.602Z,99605.86
2023-04-04T01:05:27.535Z,99609.59
2023-04-04T01:10:31.282Z,99606.20
2023-04-04T01:15:35.466Z,99604.62
2023-04-04T01:20:42.580Z,99598.88
2023-04-04T01:25:47.846Z,99598.63
2023-04-04T01:30:49.864Z,99605.39
2023-04-04T01:36:00.378Z,99612.13
2023-04-04T01:41:06.722Z,99613.52
2023-04-04T01:46:10.162Z,99612.08
2023-04-04T01:51:12.552Z,99614.00
2023-04-04T01:56:14.487Z,99617.34
2023-04-04T02:01:16.653Z,99623.04
2023-04-04T02:06:18.397Z,99622.40
2023-04-04T02:11:23.145Z,99628.00
2023-04-04T02:16:25.817Z,99623.66
2023-04-04T02:21:27.946Z,99626.86
2023-04-04T02:26:29.807Z,99626.80
2023-04-04T02:31:31.813Z,99631.98
2023-04-04T02:36:34.389Z,99631.63
2023-04-04T02:41:36.369Z,99628.69
2023-04-04T02:46:38.272Z,99626.96
2023-04-04T02:51:41.806Z,99627.05
2023-04-04T02:56:43.891Z,99627.84
2023-04-04T03:01:46.269Z,99627.49
2023-04-04T03:06:48.379Z,99628.58
2023-04-04T03:11:51.626Z,99631.88
2023-04-04T03:16:53.744Z,99637.09
2023-04-04T03:21:55.726Z,99634.77
2023-04-04T03:27:01.448Z,99635.33
2023-04-04T03:32:03.286Z,99632.58
2023-04-04T03:37:05.263Z,99632.02
2023-04-04T03:42:07.110Z,99631.11
2023-04-04T03:47:08.840Z,99631.77
2023-04-04T03:52:10.594Z,99627.54
2023-04-04T03:57:12.871Z,99630.35
2023-04-04T04:02:16.075Z,99627.12
2023-04-04T04:07:17.881Z,99626.67
2023-04-04T04:12:19.663Z,99627.31
2023-04-04T04:17:21.381Z,99626.22
2023-04-04T04:22:23.656Z,99620.91
2023-04-04T04:27:25.913Z,99626.92
2023-04-04T04:32:28.304Z,99623.75
2023-04-04T04:37:30.037Z,99622.02
2023-04-04T04:42:33.119Z,99621.23
2023-04-04T04:47:35.399Z,99624.67
2023-04-04T04:52:39.431Z,99621.77
2023-04-04T04:57:41.395Z,99624.04
2023-04-04T05:02:48.495Z,99627.05
2023-04-04T05:07:53.511Z,99626.48
2023-04-04T05:12:56.422Z,99628.12
2023-04-04T05:17:59.986Z,99626.59
2023-04-04T05:23:02.079Z,99626.20
2023-04-04T05:28:09.324Z,99632.02
2023-04-04T05:33:12.204Z,99632.54
2023-04-04T05:38:16.069Z,99632.76
2023-04-04T05:43:19.433Z,99638.37
2023-04-04T05:48:37.146Z,99635.80
2023-04-04T05:53:39.129Z,99633.39
2023-04-04T05:58:41.034Z,99632.66
2023-04-04T06:03:42.879Z,99629.42
2023-04-04T06:08:53.453Z,99621.24
2023-04-04T06:13:56.016Z,99620.33
2023-04-04T06:18:59.206Z,99615.48
2023-04-04T06:24:01.586Z,99610.16
2023-04-04T06:29:03.659Z,99608.17
2023-04-04T06:34:08.641Z,99604.80
2023-04-04T06:39:23.066Z,99604.01
2023-04-04T06:44:27.366Z,99600.31
2023-04-04T06:49:29.242Z,99600.13
2023-04-04T06:54:31.372Z,99605.45
2023-04-04T06:59:33.652Z,99595.74
2023-04-04T07:04:35.374Z,99597.81
2023-04-04T07:09:37.073Z,99594.14
2023-04-04T07:14:39.110Z,99599.13
2023-04-04T07:19:41.081Z,99606.48
2023-04-04T07:24:42.947Z,99597.77
2023-04-04T07:29:44.698Z,99598.98
2023-04-04T07:34:47.244Z,99595.73
2023-04-04T07:39:50.050Z,99603.09
2023-04-04T07:44:52.497Z,99605.13
2023-04-04T07:49:54.098Z,99603.34
2023-04-04T07:54:55.757Z,99608.90
2023-04-04T07:59:57.710Z,99616.27
2023-04-04T08:04:59.424Z,99611.40
2023-04-04T08:10:01.144Z,99606.91
2023-04-04T08:15:03.172Z,99603.73
2023-04-04T08:20:05.462Z,99606.20
2023-04-04T08:25:07.842Z,99599.54
2023-04-04T08:30:10.122Z,99595.30
2023-04-04T08:35:12.840Z,99591.39
2023-04-04T08:40:15.963Z,99587.04
2023-04-04T08:45:21.802Z,99584.78
2023-04-04T08:50:25.252Z,99583.35
2023-04-04T08:55:27.100Z,99576.73
2023-04-04T09:00:29.778Z,99575.54
2023-04-04T09:05:32.829Z,99577.94
2023-04-04T09:10:36.062Z,99572.50
2023-04-04T09:15:41.439Z,99574.51
2023-04-04T09:20:45.508Z,99582.56
2023-04-04T09:30:54.050Z,99575.21
2023-04-04T09:35:59.776Z,99572.73
2023-04-04T09:41:02.085Z,99573.03
2023-04-04T09:46:04.490Z,99571.17
2023-04-04T09:51:07.757Z,99568.96
2023-04-04T09:56:09.595Z,99568.84
2023-04-04T10:01:13.811Z,99568.64
2023-04-04T10:06:15.687Z,99568.45
2023-04-04T10:11:34.114Z,99567.02
2023-04-04T10:16:37.947Z,99567.70
2023-04-04T10:21:41.258Z,99576.05
2023-04-04T10:26:42.963Z,99569.61
2023-04-04T10:31:47.578Z,99573.33
2023-04-04T10:36:52.632Z,99569.38
2023-04-04T10:41:56.400Z,99569.82
2023-04-04T10:47:04.377Z,99570.38
2023-04-04T10:52:06.583Z,99567.14
2023-04-04T10:57:08.296Z,99552.08
2023-04-04T11:02:09.927Z,99552.84
2023-04-04T11:07:18.887Z,99555.52
2023-04-04T11:12:23.344Z,99557.59
2023-04-04T11:17:49.652Z,99556.90
2023-04-04T11:23:10.736Z,99556.44
2023-04-04T11:28:14.927Z,99546.52
2023-04-04T11:33:30.585Z,99549.79
2023-04-04T11:38:32.550Z,99542.61
2023-04-04T11:43:34.172Z,99543.90
2023-04-04T11:48:36.219Z,99547.92
2023-04-04T11:53:38.363Z,99544.46
2023-04-04T11:58:40.154Z,99543.39
2023-04-04T12:03:42.057Z,99538.96
2023-04-04T12:08:44.103Z,99536.92
2023-04-04T12:13:45.810Z,99543.26
2023-04-04T12:18:48.797Z,99543.06
2023-04-04T12:23:50.659Z,99546.66
2023-04-04T12:28:55.280Z,99546.69
2023-04-04T12:33:57.876Z,99540.51
2023-04-04T12:39:08.455Z,99544.06
2023-04-04T12:44:10.060Z,99547.47
2023-04-04T12:49:11.904Z,99549.23
2023-04-04T12:54:31.551Z,99546.83
2023-04-04T12:59:35.918Z,99552.45
2023-04-04T13:04:38.084Z,99550.23
2023-04-04T13:09:52.696Z,99545.45
2023-04-04T13:15:01.406Z,99553.20
2023-04-04T13:20:04.130Z,99556.73
2023-04-04T13:25:07.040Z,99557.14
2023-04-04T13:30:10.165Z,99560.11
2023-04-04T13:35:14.066Z,99558.69
2023-04-04T13:40:16.032Z,99556.57
2023-04-04T13:45:19.344Z,99552.19
2023-04-04T13:50:22.862Z,99552.41
2023-04-04T13:55:24.773Z,99550.66
2023-04-04T14:00:26.804Z,99549.85
2023-04-04T14:05:28.631Z,99545.23
2023-04-04T14:10:30.822Z,99549.48
2023-04-04T14:15:33.263Z,99545.25
2023-04-04T14:20:35.210Z,99544.33
2023-04-04T14:25:37.153Z,99542.84
2023-04-04T14:30:38.903Z,99544.59
2023-04-04T14:35:41.319Z,99543.75
2023-04-04T14:40:43.737Z,99535.60
2023-04-04T14:45:45.366Z,99532.23
2023-04-04T14:50:47.298Z,99534.65
2023-04-04T14:55:49.084Z,99533.70
2023-04-04T15:00:51.923Z,99533.21
2023-04-04T15:05:53.864Z,99533.57
2023-04-04T15:10:56.294Z,99528.23
2023-04-04T15:16:00.183Z,99527.30
2023-04-04T15:21:02.117Z,99532.48
2023-04-04T15:26:03.845Z,99528.33
2023-04-04T15:31:05.965Z,99529.23
2023-04-04T15:36:07.889Z,99530.73
2023-04-04T15:41:10.503Z,99525.16
2023-04-04T15:46:13.232Z,99528.92
2023-04-04T15:51:14.972Z,99528.41
2023-04-04T15:56:16.754Z,99527.61
2023-04-04T16:01:18.459Z,99520.22
2023-04-04T16:06:20.411Z,99522.85
2023-04-04T16:11:22.884Z,99524.58
2023-04-04T16:16:24.643Z,99522.69
2023-04-04T16:21:26.690Z,99522.70
2023-04-04T16:26:28.483Z,99523.14
2023-04-04T16:31:31.573Z,99525.79
2023-04-04T16:36:33.355Z,99526.19
2023-04-04T16:41:35.116Z,99529.20
2023-04-04T16:46:36.951Z,99531.04
2023-04-04T16:51:38.924Z,99537.03
2023-04-04T16:56:41.539Z,99532.40
2023-04-04T17:01:43.398Z,99536.27
2023-04-04T17:06:47.095Z,99536.21
2023-04-04T17:11:48.877Z,99547.23
2023-04-04T17:16:50.732Z,99546.37
2023-04-04T17:21:52.581Z,99554.52
2023-04-04T17:26:58.143Z,99559.02
2023-04-04T17:32:00.005Z,99563.36
2023-04-04T17:37:02.463Z,99569.87
2023-04-04T17:42:04.634Z,99569.85
2023-04-04T17:47:06.817Z,99574.56
2023-04-04T17:52:08.897Z,99581.55
2023-04-04T17:57:10.878Z,99585.48
2023-04-04T18:02:12.628Z,99590.21
2023-04-04T18:07:14.451Z,99589.07
2023-04-04T18:12:17.550Z,99592.28
2023-04-04T18:17:19.259Z,99589.68
2023-04-04T18:22:22.681Z,99588.86
2023-04-04T18:27:24.569Z,99586.63
2023-04-04T18:32:28.465Z,99589.71
2023-04-04T18:37:31.223Z,99590.88
2023-04-04T18:42:34.095Z,99593.41
2023-04-04T18:47:36.716Z,99589.99
2023-04-04T18:52:38.530Z,99589.73
2023-04-04T18:57:40.550Z,99597.75
2023-04-04T19:02:42.574Z,99591.89
2023-04-04T19:07:44.791Z,99589.95
2023-04-04T19:12:46.591Z,99586.64
2023-04-04T19:17:48.318Z,99584.34
2023-04-04T19:22:50.070Z,99582.25
2023-04-04T19:27:51.993Z,99582.55
2023-04-04T19:32:53.750Z,99586.31
2023-04-04T19:37:55.654Z,99587.96
2023-04-04T19:42:57.316Z,99581.81
2023-04-04T19:48:00.256Z,99581.89
2023-04-04T19:53:02.796Z,99583.52
2023-04-04T19:58:06.068Z,99582.63
2023-04-04T20:03:07.935Z,99584.64
2023-04-04T20:08:09.752Z,99580.65
2023-04-04T20:13:11.749Z,99577.09
2023-04-04T20:18:22.860Z,99581.46
2023-04-04T20:23:26.201Z,99584.33
2023-04-04T20:28:28.858Z,99582.13
2023-04-04T20:33:39.165Z,99586.70
2023-04-04T20:38:41.750Z,99585.61
2023-04-04T20:43:58.022Z,99584.99
2023-04-04T20:49:00.119Z,99579.89
2023-04-04T20:54:03.548Z,99585.27
2023-04-04T20:59:31.802Z,99585.35
2023-04-04T21:04:34.323Z,99581.44
2023-04-04T21:09:36.735Z,99587.06
2023-04-04T21:14:44.284Z,99591.23
2023-04-04T21:19:46.524Z,99593.58
2023-04-04T21:24:48.158Z,99590.77
2023-04-04T21:29:49.933Z,99590.25
2023-04-04T21:34:52.512Z,99588.70
2023-04-04T21:39:57.150Z,99585.27
2023-04-04T21:44:59.537Z,99580.72
2023-04-04T21:50:03.489Z,99578.50
2023-04-04T21:55:07.144Z,99577.57
2023-04-04T22:00:09.762Z,99571.05
2023-04-04T22:05:11.496Z,99566.98
2023-04-04T22:10:13.411Z,99561.58
2023-04-04T22:15:17.578Z,99559.77
2023-04-04T22:20:19.674Z,99555.90
2023-04-04T22:25:21.553Z,99555.52
2023-04-04T22:30:23.363Z,99556.43
2023-04-04T22:35:28.222Z,99553.36
2023-04-04T22:40:31.907Z,99556.41
2023-04-04T22:45:34.397Z,99554.98
2023-04-04T22:50:36.097Z,99547.13
2023-04-04T22:55:38.077Z,99545.17
2023-04-04T23:00:40.008Z,99541.92
2023-04-04T23:05:42.408Z,99535.12
2023-04-04T23:10:49.466Z,99534.92
2023-04-04T23:15:53.781Z,99527.95
2023-04-04T23:20:55.524Z,99521.95
2023-04-04T23:25:58.303Z,99525.63
2023-04-04T23:31:00.544Z,99521.27
2023-04-04T23:36:02.230Z,99520.21
2023-04-04T23:41:06.001Z,99517.55
2023-04-04T23:46:08.380Z,99513.58
2023-04-04T23:51:12.083Z,99509.35
2023-04-04T23:56:13.904Z,99508.11
